ACA8732 KCLE-CYYZ
Flight info
| Callsign | ACA8732 |
|---|---|
| Flight time | 0h 51m |
| Altitude | 31000 |
| Route | PFLYD1 DUUKR DCT DKK DCT LINNG LINNG3 |
| Aircraft | A20N/M-SDE2E3FGHIRWXY/LB1 |
Departure
| Time | 2026-05-04 23:48 |
|---|---|
| Airport | Cleveland Hopkins International Airport (KCLE) |
Arrival
| Time | 2026-05-05 00:39 |
|---|---|
| Airport | Toronto Pearson International Airport (CYYZ) |
| Time | Latitude | Longitude | Altitude | Speed | Heading |
|---|---|---|---|---|---|
| 2026-05-04 23:28 | 41.41194 | -81.84131 | 794 ft | 0 kts | 189° |
| 2026-05-04 23:41 | 41.41197 | -81.84131 | 794 ft | 3 kts | 189° |
| 2026-05-04 23:41 | 41.41254 | -81.84118 | 794 ft | 10 kts | 189° |
| 2026-05-04 23:42 | 41.41323 | -81.84119 | 794 ft | 10 kts | 126° |
| 2026-05-04 23:42 | 41.41320 | -81.84168 | 793 ft | 3 kts | 56° |
| 2026-05-04 23:42 | 41.41315 | -81.84187 | 793 ft | 2 kts | 84° |
| 2026-05-04 23:42 | 41.41314 | -81.84204 | 793 ft | 2 kts | 80° |
| 2026-05-04 23:43 | 41.41313 | -81.84212 | 793 ft | 0 kts | 50° |
| 2026-05-04 23:44 | 41.41326 | -81.84194 | 793 ft | 6 kts | 46° |
| 2026-05-04 23:44 | 41.41368 | -81.84127 | 794 ft | 12 kts | 52° |
| 2026-05-04 23:45 | 41.41423 | -81.84105 | 794 ft | 10 kts | 337° |
| 2026-05-04 23:45 | 41.41457 | -81.84138 | 793 ft | 0 kts | 322° |
| 2026-05-04 23:46 | 41.41469 | -81.84151 | 793 ft | 4 kts | 322° |
| 2026-05-04 23:46 | 41.41501 | -81.84189 | 793 ft | 8 kts | 313° |
| 2026-05-04 23:47 | 41.41504 | -81.84256 | 792 ft | 0 kts | 230° |
| 2026-05-04 23:47 | 41.41497 | -81.84267 | 791 ft | 5 kts | 230° |
| 2026-05-04 23:47 | 41.41354 | -81.84495 | 791 ft | 66 kts | 230° |
| 2026-05-04 23:47 | 41.40924 | -81.85168 | 784 ft | 122 kts | 230° |
| 2026-05-04 23:48 | 41.40311 | -81.86130 | 1117 ft | 138 kts | 227° |
| 2026-05-04 23:48 | 41.39701 | -81.87153 | 1630 ft | 143 kts | 227° |
| 2026-05-04 23:48 | 41.39127 | -81.88160 | 2338 ft | 125 kts | 232° |
| 2026-05-04 23:48 | 41.38669 | -81.89111 | 2884 ft | 124 kts | 241° |
| 2026-05-04 23:49 | 41.38526 | -81.90326 | 3161 ft | 146 kts | 269° |
| 2026-05-04 23:49 | 41.38770 | -81.91718 | 3530 ft | 163 kts | 277° |
| 2026-05-04 23:49 | 41.39111 | -81.93210 | 3989 ft | 174 kts | 278° |
| 2026-05-04 23:49 | 41.39448 | -81.94793 | 4457 ft | 182 kts | 275° |
| 2026-05-04 23:50 | 41.39705 | -81.96514 | 4738 ft | 199 kts | 274° |
| 2026-05-04 23:50 | 41.39949 | -81.98403 | 5077 ft | 215 kts | 273° |
| 2026-05-04 23:50 | 41.40188 | -82.00456 | 5228 ft | 235 kts | 273° |
| 2026-05-04 23:50 | 41.40438 | -82.02654 | 5036 ft | 241 kts | 274° |
| 2026-05-04 23:51 | 41.40715 | -82.04847 | 5024 ft | 242 kts | 274° |
| 2026-05-04 23:51 | 41.41000 | -82.07046 | 5022 ft | 242 kts | 274° |
| 2026-05-04 23:51 | 41.41330 | -82.09248 | 5024 ft | 245 kts | 283° |
| 2026-05-04 23:51 | 41.42291 | -82.11186 | 5030 ft | 262 kts | 310° |
| 2026-05-04 23:52 | 41.43915 | -82.12365 | 5021 ft | 280 kts | 338° |
| 2026-05-04 23:52 | 41.45911 | -82.12472 | 5023 ft | 297 kts | 5° |
| 2026-05-04 23:52 | 41.47831 | -82.11392 | 5017 ft | 307 kts | 33° |
| 2026-05-04 23:52 | 41.49348 | -82.09357 | 5018 ft | 312 kts | 50° |
| 2026-05-04 23:53 | 41.50689 | -82.07088 | 5010 ft | 310 kts | 49° |
| 2026-05-04 23:53 | 41.52114 | -82.04923 | 5012 ft | 311 kts | 44° |
| 2026-05-04 23:53 | 41.53661 | -82.02903 | 5015 ft | 310 kts | 40° |
| 2026-05-04 23:53 | 41.55279 | -82.00999 | 5008 ft | 310 kts | 37° |
| 2026-05-04 23:54 | 41.56948 | -81.99137 | 5360 ft | 312 kts | 36° |
| 2026-05-04 23:54 | 41.58613 | -81.97313 | 6023 ft | 309 kts | 36° |
| 2026-05-04 23:54 | 41.60257 | -81.95516 | 6506 ft | 310 kts | 36° |
| 2026-05-04 23:54 | 41.61792 | -81.93476 | 6990 ft | 316 kts | 54° |
| 2026-05-04 23:55 | 41.62645 | -81.90761 | 7518 ft | 321 kts | 81° |
| 2026-05-04 23:55 | 41.62882 | -81.87805 | 8512 ft | 320 kts | 88° |
| 2026-05-04 23:55 | 41.63055 | -81.81737 | 9845 ft | 331 kts | 88° |
| 2026-05-04 23:56 | 41.63175 | -81.78671 | 9979 ft | 331 kts | 87° |
| 2026-05-04 23:56 | 41.63325 | -81.75601 | 10009 ft | 331 kts | 86° |
| 2026-05-04 23:56 | 41.63495 | -81.72449 | 10016 ft | 361 kts | 86° |
| 2026-05-04 23:56 | 41.63687 | -81.69004 | 10011 ft | 376 kts | 86° |
| 2026-05-04 23:57 | 41.63885 | -81.65526 | 10009 ft | 375 kts | 86° |
| 2026-05-04 23:57 | 41.64082 | -81.62042 | 10128 ft | 378 kts | 86° |
| 2026-05-04 23:57 | 41.64286 | -81.58527 | 10782 ft | 380 kts | 84° |
| 2026-05-04 23:57 | 41.64967 | -81.55110 | 11694 ft | 380 kts | 63° |
| 2026-05-04 23:58 | 41.66437 | -81.52197 | 12473 ft | 378 kts | 41° |
| 2026-05-04 23:58 | 41.68520 | -81.50133 | 13277 ft | 371 kts | 21° |
| 2026-05-04 23:58 | 41.70951 | -81.49103 | 14013 ft | 365 kts | 4° |
| 2026-05-04 23:58 | 41.73468 | -81.48605 | 14755 ft | 367 kts | 2° |
| 2026-05-04 23:59 | 41.76005 | -81.48075 | 15466 ft | 372 kts | 5° |
| 2026-05-04 23:59 | 41.78561 | -81.47376 | 16191 ft | 378 kts | 7° |
| 2026-05-04 23:59 | 41.81137 | -81.46532 | 16893 ft | 383 kts | 9° |
| 2026-05-04 23:59 | 41.83730 | -81.45602 | 17607 ft | 387 kts | 11° |
| 2026-05-05 00:00 | 41.86339 | -81.44629 | 18260 ft | 391 kts | 11° |
| 2026-05-05 00:00 | 41.87185 | -81.44310 | 18423 ft | 393 kts | 11° |
| 2026-05-05 00:00 | 41.91619 | -81.42635 | 18687 ft | 395 kts | 11° |
| 2026-05-05 00:00 | 41.94229 | -81.41649 | 18700 ft | 395 kts | 11° |
| 2026-05-05 00:01 | 41.96779 | -81.40189 | 18701 ft | 403 kts | 28° |
| 2026-05-05 00:01 | 41.98951 | -81.37763 | 18698 ft | 411 kts | 45° |
| 2026-05-05 00:01 | 42.00548 | -81.34550 | 18696 ft | 417 kts | 63° |
| 2026-05-05 00:01 | 42.01416 | -81.30824 | 18701 ft | 419 kts | 81° |
| 2026-05-05 00:02 | 42.01533 | -81.26916 | 18702 ft | 419 kts | 94° |
| 2026-05-05 00:02 | 42.01298 | -81.23009 | 18696 ft | 419 kts | 96° |
| 2026-05-05 00:02 | 42.01034 | -81.19112 | 18706 ft | 419 kts | 96° |
| 2026-05-05 00:02 | 42.00897 | -81.15202 | 18702 ft | 419 kts | 87° |
| 2026-05-05 00:03 | 42.01442 | -81.11368 | 18708 ft | 418 kts | 69° |
| 2026-05-05 00:03 | 42.02753 | -81.07914 | 18711 ft | 415 kts | 51° |
| 2026-05-05 00:03 | 42.04714 | -81.05123 | 18713 ft | 408 kts | 34° |
| 2026-05-05 00:03 | 42.07148 | -81.03235 | 18697 ft | 399 kts | 16° |
| 2026-05-05 00:04 | 42.09814 | -81.02389 | 18706 ft | 390 kts | 359° |
| 2026-05-05 00:04 | 42.12487 | -81.02524 | 18705 ft | 380 kts | 344° |
| 2026-05-05 00:04 | 42.15002 | -81.03507 | 18698 ft | 374 kts | 335° |
| 2026-05-05 00:04 | 42.17425 | -81.04669 | 18695 ft | 375 kts | 335° |
| 2026-05-05 00:05 | 42.19880 | -81.05830 | 18693 ft | 374 kts | 335° |
| 2026-05-05 00:05 | 42.22347 | -81.06990 | 18693 ft | 375 kts | 335° |
| 2026-05-05 00:05 | 42.24812 | -81.08148 | 18693 ft | 375 kts | 335° |
| 2026-05-05 00:05 | 42.27274 | -81.09305 | 18693 ft | 375 kts | 335° |
| 2026-05-05 00:06 | 42.29745 | -81.10469 | 18688 ft | 375 kts | 335° |
| 2026-05-05 00:06 | 42.32210 | -81.11631 | 18692 ft | 375 kts | 335° |
| 2026-05-05 00:06 | 42.34672 | -81.12793 | 18688 ft | 375 kts | 335° |
| 2026-05-05 00:06 | 42.37135 | -81.13956 | 18687 ft | 375 kts | 335° |
| 2026-05-05 00:07 | 42.39568 | -81.15107 | 18684 ft | 375 kts | 335° |
| 2026-05-05 00:07 | 42.42031 | -81.16271 | 18685 ft | 375 kts | 335° |
| 2026-05-05 00:07 | 42.44497 | -81.17439 | 18685 ft | 375 kts | 335° |
| 2026-05-05 00:07 | 42.46961 | -81.18606 | 18685 ft | 375 kts | 335° |
| 2026-05-05 00:08 | 42.49431 | -81.19777 | 18681 ft | 375 kts | 335° |
| 2026-05-05 00:08 | 42.51896 | -81.20946 | 18679 ft | 375 kts | 335° |
| 2026-05-05 00:08 | 42.54468 | -81.21712 | 18678 ft | 385 kts | 351° |
| 2026-05-05 00:08 | 42.57180 | -81.21394 | 18678 ft | 397 kts | 9° |
| 2026-05-05 00:09 | 42.59764 | -81.19971 | 18677 ft | 407 kts | 27° |
| 2026-05-05 00:09 | 42.61983 | -81.17547 | 18677 ft | 415 kts | 45° |
| 2026-05-05 00:09 | 42.63647 | -81.14323 | 18684 ft | 420 kts | 59° |
| 2026-05-05 00:09 | 42.65010 | -81.10806 | 18678 ft | 420 kts | 61° |
| 2026-05-05 00:10 | 42.66325 | -81.07257 | 18677 ft | 420 kts | 62° |
| 2026-05-05 00:10 | 42.67627 | -81.03754 | 18682 ft | 420 kts | 61° |
| 2026-05-05 00:10 | 42.68955 | -81.00222 | 18684 ft | 420 kts | 61° |
| 2026-05-05 00:10 | 42.70298 | -80.96684 | 18678 ft | 420 kts | 61° |
| 2026-05-05 00:11 | 42.71642 | -80.93161 | 18679 ft | 420 kts | 60° |
| 2026-05-05 00:11 | 42.72989 | -80.89636 | 18682 ft | 420 kts | 60° |
| 2026-05-05 00:11 | 42.74339 | -80.86100 | 18683 ft | 420 kts | 60° |
| 2026-05-05 00:11 | 42.75686 | -80.82568 | 18682 ft | 421 kts | 60° |
| 2026-05-05 00:12 | 42.77033 | -80.79030 | 18683 ft | 421 kts | 61° |
| 2026-05-05 00:12 | 42.78379 | -80.75488 | 18684 ft | 421 kts | 61° |
| 2026-05-05 00:12 | 42.79728 | -80.71935 | 18684 ft | 421 kts | 61° |
| 2026-05-05 00:12 | 42.81072 | -80.68393 | 18684 ft | 421 kts | 61° |
| 2026-05-05 00:13 | 42.82416 | -80.64843 | 18683 ft | 421 kts | 61° |
| 2026-05-05 00:13 | 42.83761 | -80.61290 | 18683 ft | 422 kts | 61° |
| 2026-05-05 00:13 | 42.85090 | -80.57772 | 18684 ft | 422 kts | 61° |
| 2026-05-05 00:13 | 42.86433 | -80.54216 | 18684 ft | 422 kts | 61° |
| 2026-05-05 00:14 | 42.87779 | -80.50646 | 18683 ft | 422 kts | 61° |
| 2026-05-05 00:14 | 42.89118 | -80.47089 | 18685 ft | 422 kts | 61° |
| 2026-05-05 00:14 | 42.90456 | -80.43529 | 18683 ft | 422 kts | 61° |
| 2026-05-05 00:14 | 42.91791 | -80.39973 | 18682 ft | 422 kts | 61° |
| 2026-05-05 00:15 | 42.93129 | -80.36406 | 18680 ft | 422 kts | 61° |
| 2026-05-05 00:15 | 42.94469 | -80.32829 | 18679 ft | 422 kts | 61° |
| 2026-05-05 00:15 | 42.95804 | -80.29261 | 18680 ft | 422 kts | 61° |
| 2026-05-05 00:15 | 42.97138 | -80.25689 | 18675 ft | 422 kts | 61° |
| 2026-05-05 00:16 | 42.98456 | -80.22158 | 18674 ft | 422 kts | 61° |
| 2026-05-05 00:16 | 42.99787 | -80.18586 | 18672 ft | 422 kts | 60° |
| 2026-05-05 00:16 | 43.01396 | -80.15277 | 18673 ft | 417 kts | 44° |
| 2026-05-05 00:16 | 43.03599 | -80.12786 | 18667 ft | 408 kts | 25° |
| 2026-05-05 00:17 | 43.06190 | -80.11342 | 18671 ft | 397 kts | 7° |
| 2026-05-05 00:17 | 43.08891 | -80.11047 | 18670 ft | 386 kts | 351° |
| 2026-05-05 00:17 | 43.11568 | -80.11259 | 18658 ft | 384 kts | 350° |
| 2026-05-05 00:17 | 43.14229 | -80.11480 | 18449 ft | 382 kts | 350° |
| 2026-05-05 00:18 | 43.16880 | -80.11701 | 18037 ft | 380 kts | 350° |
| 2026-05-05 00:18 | 43.19501 | -80.11657 | 17452 ft | 387 kts | 4° |
| 2026-05-05 00:18 | 43.22081 | -80.10498 | 16880 ft | 395 kts | 23° |
| 2026-05-05 00:18 | 43.24301 | -80.08239 | 16313 ft | 402 kts | 43° |
| 2026-05-05 00:19 | 43.26052 | -80.05239 | 15768 ft | 401 kts | 50° |
| 2026-05-05 00:19 | 43.27719 | -80.02177 | 15236 ft | 399 kts | 50° |
| 2026-05-05 00:19 | 43.29378 | -79.99126 | 14727 ft | 396 kts | 50° |
| 2026-05-05 00:19 | 43.30733 | -79.95905 | 14206 ft | 397 kts | 68° |
| 2026-05-05 00:20 | 43.31291 | -79.92214 | 13683 ft | 395 kts | 88° |
| 2026-05-05 00:20 | 43.31344 | -79.88441 | 13142 ft | 393 kts | 90° |
| 2026-05-05 00:20 | 43.31379 | -79.84710 | 12633 ft | 389 kts | 90° |
| 2026-05-05 00:20 | 43.31419 | -79.81016 | 12115 ft | 385 kts | 90° |
| 2026-05-05 00:21 | 43.31465 | -79.77345 | 11602 ft | 383 kts | 90° |
| 2026-05-05 00:21 | 43.31518 | -79.73713 | 11164 ft | 378 kts | 90° |
| 2026-05-05 00:21 | 43.31580 | -79.70155 | 11004 ft | 365 kts | 90° |
| 2026-05-05 00:21 | 43.31645 | -79.66736 | 10965 ft | 348 kts | 90° |
| 2026-05-05 00:22 | 43.31937 | -79.63531 | 10969 ft | 332 kts | 71° |
| 2026-05-05 00:22 | 43.32980 | -79.60877 | 10969 ft | 310 kts | 45° |
| 2026-05-05 00:22 | 43.34577 | -79.59014 | 10970 ft | 287 kts | 30° |
| 2026-05-05 00:22 | 43.36103 | -79.57519 | 10968 ft | 277 kts | 30° |
| 2026-05-05 00:23 | 43.37670 | -79.55989 | 10968 ft | 282 kts | 30° |
| 2026-05-05 00:23 | 43.38747 | -79.54940 | 10968 ft | 281 kts | 30° |
| 2026-05-05 00:23 | 43.40853 | -79.52890 | 10963 ft | 280 kts | 30° |
| 2026-05-05 00:23 | 43.42445 | -79.51339 | 10971 ft | 280 kts | 30° |
| 2026-05-05 00:24 | 43.44036 | -79.49792 | 10977 ft | 280 kts | 30° |
| 2026-05-05 00:24 | 43.45631 | -79.48243 | 10965 ft | 280 kts | 30° |
| 2026-05-05 00:24 | 43.46685 | -79.47221 | 10969 ft | 280 kts | 30° |
| 2026-05-05 00:24 | 43.48279 | -79.45679 | 10953 ft | 278 kts | 30° |
| 2026-05-05 00:25 | 43.49860 | -79.44150 | 10754 ft | 277 kts | 30° |
| 2026-05-05 00:25 | 43.51453 | -79.42621 | 10395 ft | 279 kts | 30° |
| 2026-05-05 00:25 | 43.53057 | -79.41094 | 10033 ft | 280 kts | 30° |
| 2026-05-05 00:25 | 43.54660 | -79.39582 | 9673 ft | 278 kts | 30° |
| 2026-05-05 00:26 | 43.56254 | -79.38088 | 9290 ft | 276 kts | 30° |
| 2026-05-05 00:26 | 43.57821 | -79.36633 | 8906 ft | 274 kts | 30° |
| 2026-05-05 00:26 | 43.59402 | -79.35171 | 8513 ft | 272 kts | 30° |
| 2026-05-05 00:26 | 43.60978 | -79.33721 | 8132 ft | 271 kts | 30° |
| 2026-05-05 00:27 | 43.62550 | -79.32279 | 7750 ft | 270 kts | 30° |
| 2026-05-05 00:27 | 43.64123 | -79.30846 | 7295 ft | 272 kts | 30° |
| 2026-05-05 00:27 | 43.65725 | -79.29397 | 6782 ft | 277 kts | 30° |
| 2026-05-05 00:27 | 43.67337 | -79.27954 | 6378 ft | 277 kts | 30° |
| 2026-05-05 00:28 | 43.69012 | -79.26570 | 5828 ft | 282 kts | 18° |
| 2026-05-05 00:28 | 43.70889 | -79.26096 | 5329 ft | 275 kts | 351° |
| 2026-05-05 00:28 | 43.72767 | -79.26260 | 5118 ft | 268 kts | 349° |
| 2026-05-05 00:28 | 43.74623 | -79.26422 | 4826 ft | 266 kts | 349° |
| 2026-05-05 00:29 | 43.76465 | -79.26573 | 4497 ft | 265 kts | 349° |
| 2026-05-05 00:29 | 43.78312 | -79.26715 | 4162 ft | 265 kts | 349° |
| 2026-05-05 00:29 | 43.80143 | -79.26839 | 4009 ft | 264 kts | 349° |
| 2026-05-05 00:29 | 43.81982 | -79.27037 | 3985 ft | 261 kts | 339° |
| 2026-05-05 00:30 | 43.83544 | -79.28080 | 3998 ft | 243 kts | 309° |
| 2026-05-05 00:30 | 43.84440 | -79.29925 | 3992 ft | 225 kts | 279° |
| 2026-05-05 00:30 | 43.84464 | -79.31982 | 4006 ft | 205 kts | 254° |
| 2026-05-05 00:30 | 43.84124 | -79.33827 | 3989 ft | 191 kts | 248° |
| 2026-05-05 00:31 | 43.83657 | -79.35571 | 3993 ft | 191 kts | 245° |
| 2026-05-05 00:31 | 43.83181 | -79.37175 | 3993 ft | 174 kts | 244° |
| 2026-05-05 00:31 | 43.82868 | -79.38710 | 3987 ft | 159 kts | 258° |
| 2026-05-05 00:31 | 43.82783 | -79.40147 | 3998 ft | 144 kts | 259° |
| 2026-05-05 00:32 | 43.82398 | -79.41385 | 3989 ft | 142 kts | 223° |
| 2026-05-05 00:32 | 43.81538 | -79.41880 | 3986 ft | 126 kts | 210° |
| 2026-05-05 00:32 | 43.80813 | -79.42512 | 3986 ft | 128 kts | 204° |
| 2026-05-05 00:32 | 43.79946 | -79.42799 | 3993 ft | 128 kts | 201° |
| 2026-05-05 00:33 | 43.79279 | -79.43473 | 3998 ft | 119 kts | 241° |
| 2026-05-05 00:33 | 43.79136 | -79.44605 | 3878 ft | 121 kts | 259° |
| 2026-05-05 00:33 | 43.78936 | -79.45664 | 3696 ft | 109 kts | 241° |
| 2026-05-05 00:33 | 43.78776 | -79.46688 | 3496 ft | 106 kts | 248° |
| 2026-05-05 00:34 | 43.78577 | -79.47711 | 3458 ft | 116 kts | 256° |
| 2026-05-05 00:34 | 43.78545 | -79.48833 | 3403 ft | 117 kts | 259° |
| 2026-05-05 00:34 | 43.78295 | -79.49843 | 3198 ft | 109 kts | 233° |
| 2026-05-05 00:34 | 43.77843 | -79.50673 | 3051 ft | 107 kts | 230° |
| 2026-05-05 00:35 | 43.77373 | -79.51472 | 2901 ft | 108 kts | 229° |
| 2026-05-05 00:35 | 43.76892 | -79.52270 | 2754 ft | 107 kts | 228° |
| 2026-05-05 00:35 | 43.76470 | -79.53104 | 2604 ft | 106 kts | 231° |
| 2026-05-05 00:35 | 43.76002 | -79.53869 | 2470 ft | 106 kts | 225° |
| 2026-05-05 00:36 | 43.75478 | -79.54619 | 2321 ft | 110 kts | 223° |
| 2026-05-05 00:36 | 43.74961 | -79.55384 | 2217 ft | 109 kts | 226° |
| 2026-05-05 00:36 | 43.74450 | -79.56154 | 2094 ft | 109 kts | 225° |
| 2026-05-05 00:36 | 43.73920 | -79.56921 | 1941 ft | 112 kts | 224° |
| 2026-05-05 00:37 | 43.73392 | -79.57711 | 1757 ft | 111 kts | 226° |
| 2026-05-05 00:37 | 43.72863 | -79.58472 | 1610 ft | 111 kts | 223° |
| 2026-05-05 00:37 | 43.72321 | -79.59254 | 1449 ft | 115 kts | 225° |
| 2026-05-05 00:37 | 43.71780 | -79.60076 | 1298 ft | 117 kts | 225° |
| 2026-05-05 00:38 | 43.71211 | -79.60898 | 1138 ft | 122 kts | 224° |
| 2026-05-05 00:38 | 43.70639 | -79.61743 | 983 ft | 115 kts | 224° |
| 2026-05-05 00:38 | 43.70086 | -79.62536 | 835 ft | 116 kts | 223° |
| 2026-05-05 00:38 | 43.69528 | -79.63350 | 660 ft | 116 kts | 223° |
| 2026-05-05 00:39 | 43.68983 | -79.64134 | 570 ft | 108 kts | 224° |
| 2026-05-05 00:39 | 43.68562 | -79.64730 | 567 ft | 65 kts | 227° |
| 2026-05-05 00:39 | 43.68366 | -79.65011 | 568 ft | 23 kts | 216° |
| 2026-05-05 00:39 | 43.68221 | -79.65090 | 564 ft | 20 kts | 196° |
| 2026-05-05 00:40 | 43.68127 | -79.65121 | 566 ft | 13 kts | 176° |
| 2026-05-05 00:40 | 43.68098 | -79.65046 | 566 ft | 9 kts | 98° |
| 2026-05-05 00:40 | 43.68141 | -79.64948 | 567 ft | 15 kts | 46° |
| 2026-05-05 00:40 | 43.68223 | -79.64828 | 568 ft | 19 kts | 46° |
| 2026-05-05 00:41 | 43.68321 | -79.64688 | 565 ft | 22 kts | 47° |
| 2026-05-05 00:41 | 43.68438 | -79.64519 | 567 ft | 26 kts | 46° |
| 2026-05-05 00:41 | 43.68567 | -79.64329 | 565 ft | 28 kts | 47° |
| 2026-05-05 00:41 | 43.68654 | -79.64202 | 568 ft | 0 kts | 45° |
| 2026-05-05 00:42 | 43.68661 | -79.64193 | 567 ft | 3 kts | 45° |
| 2026-05-05 00:42 | 43.68682 | -79.64164 | 569 ft | 6 kts | 45° |
| 2026-05-05 00:42 | 43.68718 | -79.64114 | 574 ft | 9 kts | 45° |
| 2026-05-05 00:42 | 43.68762 | -79.64049 | 569 ft | 10 kts | 47° |